createdAt,value
2018-09-27T00:00:46.274Z,90.85
2018-09-27T00:03:15.459Z,90.55
2018-09-27T00:05:45.051Z,90.96
2018-09-27T00:08:14.069Z,90.73
2018-09-27T00:10:43.379Z,91.30
2018-09-27T00:13:12.613Z,92.03
2018-09-27T00:15:41.704Z,91.58
2018-09-27T00:18:10.985Z,91.18
2018-09-27T00:20:40.343Z,90.96
2018-09-27T00:23:09.543Z,91.07
2018-09-27T00:25:38.739Z,90.97
2018-09-27T00:28:08.128Z,91.35
2018-09-27T00:30:37.063Z,91.84
2018-09-27T00:33:06.453Z,91.79
2018-09-27T00:35:35.633Z,91.93
2018-09-27T00:38:04.747Z,92.12
2018-09-27T00:40:34.100Z,92.03
2018-09-27T00:43:03.118Z,92.14
2018-09-27T00:45:32.552Z,92.61
2018-09-27T00:48:01.659Z,92.31
2018-09-27T00:50:30.952Z,91.92
2018-09-27T00:52:59.686Z,91.60
2018-09-27T00:55:29.502Z,91.50
2018-09-27T00:57:58.510Z,91.57
2018-09-27T01:00:27.721Z,91.79
2018-09-27T01:02:57.029Z,91.64
2018-09-27T01:05:25.862Z,92.27
2018-09-27T01:07:54.474Z,92.22
2018-09-27T01:10:44.097Z,92.27
2018-09-27T01:13:13.539Z,92.30
2018-09-27T01:15:43.610Z,92.34
2018-09-27T01:18:12.768Z,92.03
2018-09-27T01:20:42.145Z,91.83
2018-09-27T01:23:12.128Z,91.71
2018-09-27T01:25:40.738Z,91.71
2018-09-27T01:28:09.603Z,92.00
2018-09-27T01:30:38.869Z,91.76
2018-09-27T01:33:11.062Z,92.03
2018-09-27T01:35:40.014Z,91.55
2018-09-27T01:38:09.124Z,92.00
2018-09-27T01:40:38.298Z,92.59
2018-09-27T01:43:07.078Z,92.34
2018-09-27T01:45:36.121Z,92.80
2018-09-27T01:48:05.602Z,92.39
2018-09-27T01:50:34.580Z,92.95
2018-09-27T01:53:03.407Z,92.74
2018-09-27T01:55:32.007Z,92.93
2018-09-27T01:58:00.943Z,92.70
2018-09-27T02:00:29.669Z,92.30
2018-09-27T02:02:58.458Z,91.95
2018-09-27T02:05:27.976Z,92.83
2018-09-27T02:07:56.878Z,92.94
2018-09-27T02:10:25.735Z,92.82
2018-09-27T02:12:54.669Z,92.83
2018-09-27T02:15:23.938Z,92.29
2018-09-27T02:17:53.061Z,92.31
2018-09-27T02:20:22.164Z,92.81
2018-09-27T02:22:50.787Z,92.37
2018-09-27T02:25:19.790Z,92.62
2018-09-27T02:27:48.444Z,92.77
2018-09-27T02:30:17.184Z,92.59
2018-09-27T02:32:46.904Z,92.35
2018-09-27T02:35:15.713Z,93.13
2018-09-27T02:37:44.533Z,93.06
2018-09-27T02:40:15.193Z,93.72
2018-09-27T02:42:43.728Z,93.57
2018-09-27T02:45:13.183Z,93.55
2018-09-27T02:47:43.803Z,93.55
2018-09-27T02:50:13.143Z,93.44
2018-09-27T02:52:42.305Z,93.79
2018-09-27T02:55:11.109Z,93.60
2018-09-27T02:57:40.580Z,93.46
2018-09-27T03:00:10.023Z,93.12
2018-09-27T03:02:39.609Z,93.45
2018-09-27T03:05:08.381Z,93.20
2018-09-27T03:07:37.174Z,93.22
2018-09-27T03:10:06.788Z,93.09
2018-09-27T03:12:36.014Z,93.46
2018-09-27T03:15:05.289Z,93.33
2018-09-27T03:17:34.675Z,93.63
2018-09-27T03:20:03.748Z,93.86
2018-09-27T03:22:33.884Z,93.86
2018-09-27T03:25:02.710Z,93.93
2018-09-27T03:27:32.580Z,93.52
2018-09-27T03:30:01.528Z,94.11
2018-09-27T03:32:30.759Z,94.39
2018-09-27T03:35:00.061Z,94.27
2018-09-27T03:37:29.164Z,94.05
2018-09-27T03:39:58.105Z,93.89
2018-09-27T03:42:27.623Z,93.93
2018-09-27T03:44:56.813Z,94.30
2018-09-27T03:47:26.381Z,94.06
2018-09-27T03:49:55.265Z,94.29
2018-09-27T03:52:24.713Z,94.20
2018-09-27T03:54:53.396Z,94.14
2018-09-27T03:57:22.019Z,94.10
2018-09-27T03:59:50.908Z,93.54
2018-09-27T04:02:20.449Z,93.87
2018-09-27T04:04:49.644Z,94.22
2018-09-27T04:07:18.832Z,94.42
2018-09-27T04:09:47.425Z,94.35
2018-09-27T04:12:17.045Z,94.28
2018-09-27T04:14:45.810Z,94.65
2018-09-27T04:17:14.464Z,94.23
2018-09-27T04:19:43.066Z,94.51
2018-09-27T04:22:12.208Z,94.42
2018-09-27T04:24:41.458Z,94.56
2018-09-27T04:27:10.713Z,94.71
2018-09-27T04:29:40.444Z,94.57
2018-09-27T04:32:09.219Z,94.15
2018-09-27T04:34:39.039Z,94.30
2018-09-27T04:37:07.890Z,94.33
2018-09-27T04:39:36.785Z,94.45
2018-09-27T04:42:05.488Z,95.02
2018-09-27T04:44:34.325Z,94.42
2018-09-27T04:47:03.393Z,94.82
2018-09-27T04:49:32.291Z,94.89
2018-09-27T04:52:00.995Z,94.99
2018-09-27T04:54:29.969Z,94.79
2018-09-27T04:56:59.364Z,94.71
2018-09-27T04:59:28.626Z,94.73
2018-09-27T05:01:57.345Z,95.28
2018-09-27T05:04:26.105Z,95.54
2018-09-27T05:06:54.914Z,95.03
2018-09-27T05:09:23.680Z,94.93
2018-09-27T05:11:52.999Z,96.14
2018-09-27T05:14:21.760Z,95.67
2018-09-27T05:16:51.504Z,95.61
2018-09-27T05:19:20.834Z,95.56
2018-09-27T05:21:49.655Z,95.33
2018-09-27T05:24:19.152Z,95.57
2018-09-27T05:26:47.925Z,95.37
2018-09-27T05:29:16.819Z,95.99
2018-09-27T05:31:45.632Z,95.33
2018-09-27T05:34:14.467Z,95.25
2018-09-27T05:36:44.029Z,94.92
2018-09-27T05:39:13.116Z,95.38
2018-09-27T05:41:42.736Z,95.35
2018-09-27T05:44:11.806Z,95.23
2018-09-27T05:46:40.956Z,95.53
2018-09-27T05:49:10.774Z,95.62
2018-09-27T05:51:40.457Z,95.94
2018-09-27T05:54:09.669Z,95.93
2018-09-27T05:56:38.739Z,95.98
2018-09-27T05:59:08.100Z,95.75
2018-09-27T06:01:37.601Z,95.30
2018-09-27T06:04:06.883Z,94.89
2018-09-27T06:06:35.821Z,95.00
2018-09-27T06:09:06.877Z,94.46
2018-09-27T06:11:36.115Z,94.43
2018-09-27T06:14:05.427Z,94.88
2018-09-27T06:16:34.555Z,94.25
2018-09-27T06:19:04.129Z,94.11
2018-09-27T06:21:33.352Z,93.90
2018-09-27T06:24:02.519Z,93.76
2018-09-27T06:26:31.386Z,93.20
2018-09-27T06:29:00.265Z,92.88
2018-09-27T06:31:29.907Z,91.37
2018-09-27T06:33:59.199Z,90.05
2018-09-27T06:36:27.880Z,88.78
2018-09-27T06:38:56.570Z,88.18
2018-09-27T06:41:26.189Z,87.92
2018-09-27T06:43:55.000Z,86.59
2018-09-27T06:46:23.924Z,86.32
2018-09-27T06:48:52.648Z,86.31
2018-09-27T06:51:23.221Z,86.70
2018-09-27T06:53:52.040Z,87.76
2018-09-27T06:56:20.909Z,88.24
2018-09-27T06:58:50.386Z,88.08
2018-09-27T07:01:19.511Z,87.90
2018-09-27T07:03:49.030Z,87.50
2018-09-27T07:06:17.881Z,86.61
2018-09-27T07:08:46.601Z,84.37
2018-09-27T07:11:15.700Z,80.57
2018-09-27T07:13:44.625Z,77.21
2018-09-27T07:16:14.630Z,76.12
2018-09-27T07:18:43.344Z,75.54
2018-09-27T07:21:12.410Z,73.87
2018-09-27T07:23:41.806Z,71.58
2018-09-27T07:26:10.483Z,68.97
2018-09-27T07:28:40.023Z,69.43
2018-09-27T07:31:09.275Z,71.50
2018-09-27T07:33:38.971Z,74.09
2018-09-27T07:36:07.885Z,75.74
2018-09-27T07:38:37.954Z,77.21
2018-09-27T07:41:07.278Z,76.43
2018-09-27T07:43:36.162Z,74.69
2018-09-27T07:46:05.555Z,74.04
2018-09-27T07:48:36.620Z,74.33
2018-09-27T07:51:05.304Z,74.03
2018-09-27T07:53:34.105Z,75.58
2018-09-27T07:56:03.493Z,76.01
2018-09-27T07:58:32.681Z,75.05
2018-09-27T08:01:01.543Z,72.39
2018-09-27T08:03:31.057Z,65.47
2018-09-27T08:05:59.666Z,60.55
2018-09-27T08:08:28.494Z,54.06
2018-09-27T08:10:57.844Z,48.12
2018-09-27T08:13:27.249Z,45.54
2018-09-27T08:15:56.336Z,42.47
2018-09-27T08:18:26.617Z,41.62
2018-09-27T08:20:55.744Z,39.75
2018-09-27T08:23:24.407Z,38.21
2018-09-27T08:25:53.791Z,35.66
2018-09-27T08:28:24.287Z,35.35
2018-09-27T08:30:53.180Z,34.24
2018-09-27T08:33:23.353Z,32.46
2018-09-27T08:35:52.212Z,31.23
2018-09-27T08:38:21.345Z,30.71
2018-09-27T08:40:49.877Z,29.71
2018-09-27T08:43:18.673Z,28.61
2018-09-27T08:45:48.035Z,28.84
2018-09-27T08:48:16.838Z,27.59
2018-09-27T08:50:46.317Z,28.31
2018-09-27T08:53:15.671Z,28.09
2018-09-27T08:55:44.718Z,26.68
2018-09-27T08:58:13.612Z,27.14
2018-09-27T09:00:42.441Z,27.08
2018-09-27T09:03:11.240Z,26.19
2018-09-27T09:05:40.647Z,27.18
2018-09-27T09:08:09.565Z,27.88
2018-09-27T09:10:39.232Z,27.81
2018-09-27T09:13:08.600Z,27.49
2018-09-27T09:15:37.676Z,26.56
2018-09-27T09:18:06.888Z,23.93
2018-09-27T09:20:36.048Z,24.41
2018-09-27T09:23:05.142Z,25.03
2018-09-27T09:25:34.170Z,23.24
2018-09-27T09:28:02.921Z,22.06
2018-09-27T09:30:31.895Z,22.01
2018-09-27T09:33:01.127Z,21.57
2018-09-27T09:35:31.190Z,20.73
2018-09-27T09:38:00.517Z,20.91
2018-09-27T09:40:29.383Z,19.84
2018-09-27T09:42:58.398Z,20.33
2018-09-27T09:45:28.188Z,19.51
2018-09-27T09:47:57.075Z,19.49
2018-09-27T09:50:25.684Z,19.05
2018-09-27T09:52:53.936Z,18.75
2018-09-27T09:55:22.035Z,18.71
2018-09-27T09:57:50.880Z,19.30
2018-09-27T10:00:18.700Z,18.03
2018-09-27T10:02:49.467Z,19.37
2018-09-27T10:05:19.092Z,20.47
2018-09-27T10:07:47.796Z,21.63
2018-09-27T10:10:15.533Z,19.78
2018-09-27T10:12:43.695Z,19.38
2018-09-27T10:15:13.062Z,18.08
2018-09-27T10:17:42.435Z,18.38
2018-09-27T10:20:11.097Z,17.60
2018-09-27T10:22:39.917Z,16.11
2018-09-27T10:25:08.757Z,16.27
2018-09-27T10:27:38.589Z,15.99
2018-09-27T10:30:07.588Z,15.49
2018-09-27T10:32:36.613Z,15.26
2018-09-27T10:35:05.935Z,14.88
2018-09-27T10:37:35.078Z,14.13
2018-09-27T10:40:03.955Z,13.70
2018-09-27T10:42:33.581Z,13.78
2018-09-27T10:45:02.739Z,13.89
2018-09-27T10:47:31.930Z,13.40
2018-09-27T10:50:00.702Z,13.50
2018-09-27T10:52:29.586Z,13.96
2018-09-27T10:54:58.711Z,14.83
2018-09-27T10:57:27.809Z,13.97
2018-09-27T10:59:56.651Z,13.08
2018-09-27T11:02:26.872Z,13.02
2018-09-27T11:04:56.430Z,13.02
2018-09-27T11:07:25.437Z,12.77
2018-09-27T11:09:55.206Z,13.07
2018-09-27T11:12:23.930Z,12.74
2018-09-27T11:14:54.455Z,12.42
2018-09-27T11:17:27.006Z,11.91
2018-09-27T11:19:55.790Z,12.46
2018-09-27T11:22:24.881Z,12.56
2018-09-27T11:24:54.128Z,12.51
2018-09-27T11:27:23.102Z,12.01
2018-09-27T11:29:57.732Z,11.93
2018-09-27T11:32:45.173Z,11.30
2018-09-27T11:35:14.765Z,12.00
2018-09-27T11:37:43.833Z,12.32
2018-09-27T11:40:12.924Z,12.16
2018-09-27T11:42:41.758Z,12.06
2018-09-27T11:45:12.614Z,11.83
2018-09-27T11:47:41.464Z,11.79
2018-09-27T11:50:11.850Z,11.28
2018-09-27T11:52:41.074Z,11.25
2018-09-27T11:55:11.470Z,11.50
2018-09-27T11:57:40.498Z,10.91
2018-09-27T12:00:10.524Z,10.92
2018-09-27T12:02:39.436Z,12.00
2018-09-27T12:05:09.007Z,12.26
2018-09-27T12:07:38.135Z,11.22
2018-09-27T12:10:06.823Z,12.00
2018-09-27T12:12:35.747Z,11.44
2018-09-27T12:15:04.964Z,11.14
2018-09-27T12:17:33.870Z,11.33
2018-09-27T12:20:02.486Z,11.86
2018-09-27T12:22:31.527Z,10.57
2018-09-27T12:25:01.159Z,10.60
2018-09-27T12:27:30.129Z,10.62
2018-09-27T12:29:59.468Z,10.87
2018-09-27T12:32:28.629Z,10.29
2018-09-27T12:34:58.008Z,10.57
2018-09-27T12:37:27.134Z,10.61
2018-09-27T12:39:56.413Z,9.90
2018-09-27T12:42:25.191Z,10.37
2018-09-27T12:44:53.949Z,10.52
2018-09-27T12:47:23.144Z,9.48
2018-09-27T12:49:52.088Z,10.23
2018-09-27T12:52:21.345Z,11.33
2018-09-27T12:54:50.678Z,11.35
2018-09-27T12:57:20.938Z,11.19
2018-09-27T12:59:49.058Z,10.56
2018-09-27T13:02:17.296Z,10.48
2018-09-27T13:04:45.703Z,10.16
2018-09-27T13:07:14.844Z,9.84
2018-09-27T13:09:43.680Z,10.84
2018-09-27T13:12:12.450Z,11.21
2018-09-27T13:14:41.456Z,12.22
2018-09-27T13:17:11.592Z,11.31
2018-09-27T13:19:40.602Z,11.17
2018-09-27T13:22:09.414Z,10.13
2018-09-27T13:24:38.340Z,10.24
2018-09-27T13:27:07.460Z,9.94
2018-09-27T13:29:36.353Z,10.58
2018-09-27T13:32:05.298Z,10.06
2018-09-27T13:34:35.282Z,10.36
2018-09-27T13:37:05.430Z,10.16
2018-09-27T13:39:34.672Z,10.54
2018-09-27T13:42:03.826Z,10.66
2018-09-27T13:44:33.028Z,11.94
2018-09-27T13:47:02.174Z,11.85
2018-09-27T13:49:31.344Z,11.34
2018-09-27T13:52:00.074Z,11.08
2018-09-27T13:54:29.977Z,11.77
2018-09-27T13:56:59.211Z,12.23
2018-09-27T13:59:28.036Z,11.67
2018-09-27T14:01:57.979Z,11.72
2018-09-27T14:04:26.834Z,11.31
2018-09-27T14:06:56.003Z,11.95
2018-09-27T14:09:25.064Z,10.72
2018-09-27T14:11:53.908Z,11.07
2018-09-27T14:14:22.685Z,11.41
2018-09-27T14:16:51.943Z,11.66
2018-09-27T14:19:21.175Z,12.19
2018-09-27T14:21:49.940Z,11.90
2018-09-27T14:24:18.754Z,12.05
2018-09-27T14:26:47.982Z,12.69
2018-09-27T14:29:16.708Z,13.85
2018-09-27T14:31:45.618Z,15.86
2018-09-27T14:34:14.637Z,17.52
2018-09-27T14:36:44.885Z,19.49
2018-09-27T14:39:14.253Z,19.29
2018-09-27T14:41:43.484Z,19.55
2018-09-27T14:44:12.753Z,21.33
2018-09-27T14:46:42.006Z,22.27
2018-09-27T14:49:11.136Z,22.57
2018-09-27T14:51:40.363Z,23.51
2018-09-27T14:54:09.281Z,23.25
2018-09-27T14:56:38.198Z,24.36
2018-09-27T14:59:07.761Z,24.05
2018-09-27T15:01:36.717Z,24.29
2018-09-27T15:04:05.491Z,24.47
2018-09-27T15:06:34.432Z,24.77
2018-09-27T15:09:04.798Z,24.58
2018-09-27T15:11:34.848Z,24.00
2018-09-27T15:14:04.217Z,24.41
2018-09-27T15:16:33.371Z,23.96
2018-09-27T15:19:02.405Z,24.22
2018-09-27T15:21:31.427Z,24.49
2018-09-27T15:24:01.706Z,25.22
2018-09-27T15:26:31.356Z,26.02
2018-09-27T15:29:01.297Z,25.71
2018-09-27T15:31:30.679Z,24.53
2018-09-27T15:33:59.422Z,28.75
2018-09-27T15:36:28.393Z,29.27
2018-09-27T15:38:57.245Z,30.50
2018-09-27T15:41:26.524Z,28.25
2018-09-27T15:43:55.763Z,30.75
2018-09-27T15:46:25.091Z,32.03
2018-09-27T15:48:54.402Z,33.50
2018-09-27T15:51:23.514Z,31.14
2018-09-27T15:53:52.802Z,32.49
2018-09-27T15:56:22.086Z,33.87
2018-09-27T15:58:51.987Z,34.49
2018-09-27T16:01:21.661Z,35.71
2018-09-27T16:03:51.742Z,35.80
2018-09-27T16:06:21.237Z,35.46
2018-09-27T16:08:50.270Z,35.99
2018-09-27T16:11:19.467Z,34.43
2018-09-27T16:13:48.361Z,35.15
2018-09-27T16:16:17.594Z,35.42
2018-09-27T16:18:46.746Z,36.31
2018-09-27T16:21:16.344Z,35.51
2018-09-27T16:23:45.528Z,36.44
2018-09-27T16:26:14.594Z,36.43
2018-09-27T16:28:44.912Z,38.10
2018-09-27T16:31:13.941Z,38.72
2018-09-27T16:33:44.288Z,39.30
2018-09-27T16:36:13.309Z,40.88
2018-09-27T16:38:43.719Z,40.90
2018-09-27T16:41:13.068Z,39.93
2018-09-27T16:43:42.168Z,39.91
2018-09-27T16:46:11.212Z,40.78
2018-09-27T16:48:40.672Z,42.41
2018-09-27T16:51:09.823Z,43.73
2018-09-27T16:53:39.185Z,42.90
2018-09-27T16:56:09.050Z,44.09
2018-09-27T16:58:38.274Z,45.85
2018-09-27T17:01:07.723Z,45.43
2018-09-27T17:03:37.760Z,45.92
2018-09-27T17:06:06.928Z,46.74
2018-09-27T17:08:36.325Z,46.90
2018-09-27T17:11:06.225Z,47.32
2018-09-27T17:13:35.699Z,48.99
2018-09-27T17:16:04.844Z,49.81
2018-09-27T17:18:33.986Z,50.74
2018-09-27T17:21:03.462Z,51.01
2018-09-27T17:23:31.529Z,52.11
2018-09-27T17:25:59.779Z,52.94
2018-09-27T17:28:29.187Z,52.78
2018-09-27T17:30:58.311Z,53.37
2018-09-27T17:33:27.444Z,54.36
2018-09-27T17:35:56.832Z,55.32
2018-09-27T17:38:24.976Z,56.22
2018-09-27T17:40:54.187Z,56.14
2018-09-27T17:43:36.687Z,56.86
2018-09-27T17:46:06.465Z,57.54
2018-09-27T17:48:35.844Z,57.85
2018-09-27T17:51:05.141Z,58.36
2018-09-27T17:53:35.397Z,58.86
2018-09-27T17:56:04.905Z,59.03
2018-09-27T17:58:34.429Z,59.87
2018-09-27T18:01:03.859Z,60.50
2018-09-27T18:03:32.932Z,60.72
2018-09-27T18:06:04.114Z,61.09
2018-09-27T18:08:34.066Z,61.63
2018-09-27T18:11:03.685Z,62.95
2018-09-27T18:13:32.946Z,63.40
2018-09-27T18:16:01.863Z,63.67
2018-09-27T18:18:30.957Z,64.42
2018-09-27T18:21:00.191Z,64.45
2018-09-27T18:23:29.570Z,64.82
2018-09-27T18:25:58.750Z,65.24
2018-09-27T18:28:28.852Z,66.16
2018-09-27T18:30:58.153Z,66.28
2018-09-27T18:33:27.171Z,66.81
2018-09-27T18:35:57.412Z,67.00
2018-09-27T18:38:26.845Z,67.40
2018-09-27T18:40:56.225Z,67.54
2018-09-27T18:43:25.326Z,67.82
2018-09-27T18:45:54.329Z,67.81
2018-09-27T18:48:23.747Z,68.67
2018-09-27T18:50:52.857Z,69.94
2018-09-27T18:53:22.838Z,70.04
2018-09-27T18:55:52.424Z,70.63
2018-09-27T18:58:21.534Z,71.60
2018-09-27T19:00:50.719Z,71.20
2018-09-27T19:03:19.810Z,71.16
2018-09-27T19:05:49.109Z,71.51
2018-09-27T19:08:18.411Z,71.99
2018-09-27T19:10:48.066Z,72.47
2018-09-27T19:13:16.940Z,72.75
2018-09-27T19:15:46.902Z,73.33
2018-09-27T19:18:16.000Z,73.62
2018-09-27T19:20:45.622Z,73.63
2018-09-27T19:23:14.561Z,73.97
2018-09-27T19:25:43.898Z,73.78
2018-09-27T19:28:13.107Z,74.16
2018-09-27T19:30:42.242Z,74.56
2018-09-27T19:33:11.071Z,74.41
2018-09-27T19:35:40.846Z,74.85
2018-09-27T19:38:09.880Z,74.67
2018-09-27T19:40:39.087Z,74.51
2018-09-27T19:43:08.400Z,74.86
2018-09-27T19:45:37.206Z,75.51
2018-09-27T19:48:06.005Z,75.58
2018-09-27T19:50:35.039Z,76.62
2018-09-27T19:53:04.240Z,78.69
2018-09-27T19:55:37.951Z,78.80
2018-09-27T19:58:07.001Z,78.22
2018-09-27T20:00:35.820Z,78.41
2018-09-27T20:03:05.023Z,78.62
2018-09-27T20:05:33.952Z,78.52
2018-09-27T20:08:03.520Z,78.16
2018-09-27T20:10:33.051Z,78.35
2018-09-27T20:13:02.056Z,78.48
2018-09-27T20:15:32.299Z,78.79
2018-09-27T20:18:01.753Z,78.08
2018-09-27T20:20:31.330Z,78.23
2018-09-27T20:23:00.929Z,78.97
2018-09-27T20:25:29.688Z,79.08
2018-09-27T20:27:59.316Z,79.37
2018-09-27T20:30:28.084Z,80.40
2018-09-27T20:32:56.733Z,82.25
2018-09-27T20:35:26.096Z,82.37
2018-09-27T20:37:55.171Z,81.62
2018-09-27T20:40:24.152Z,80.56
2018-09-27T20:42:53.784Z,81.09
2018-09-27T20:45:23.005Z,81.05
2018-09-27T20:47:51.996Z,81.10
2018-09-27T20:50:21.232Z,80.89
2018-09-27T20:52:50.097Z,81.18
2018-09-27T20:55:20.543Z,81.80
2018-09-27T20:57:49.489Z,82.03
2018-09-27T21:00:18.453Z,81.94
2018-09-27T21:02:47.353Z,81.95
2018-09-27T21:05:16.600Z,81.95
2018-09-27T21:07:45.316Z,81.73
2018-09-27T21:10:14.147Z,82.35
2018-09-27T21:12:43.084Z,82.63
2018-09-27T21:15:12.419Z,82.76
2018-09-27T21:17:41.695Z,83.10
2018-09-27T21:20:10.576Z,83.05
2018-09-27T21:22:40.175Z,83.16
2018-09-27T21:25:09.248Z,83.33
2018-09-27T21:27:38.012Z,83.33
2018-09-27T21:30:07.296Z,83.68
2018-09-27T21:32:36.107Z,83.75
2018-09-27T21:35:05.114Z,83.66
2018-09-27T21:37:34.017Z,84.13
2018-09-27T21:40:02.871Z,84.07
2018-09-27T21:42:31.909Z,84.19
2018-09-27T21:45:01.295Z,84.29
2018-09-27T21:47:30.459Z,84.81
2018-09-27T21:49:59.641Z,84.70
2018-09-27T21:52:28.478Z,84.91
2018-09-27T21:54:57.399Z,84.95
2018-09-27T21:57:26.242Z,84.87
2018-09-27T21:59:55.645Z,85.86
2018-09-27T22:02:24.711Z,85.69
2018-09-27T22:04:53.945Z,85.28
2018-09-27T22:07:25.232Z,85.21
2018-09-27T22:09:54.828Z,85.39
2018-09-27T22:12:23.910Z,85.37
2018-09-27T22:14:53.132Z,85.33
2018-09-27T22:17:22.320Z,85.91
2018-09-27T22:19:52.125Z,86.04
2018-09-27T22:22:20.935Z,86.36
2018-09-27T22:24:49.727Z,86.52
2018-09-27T22:27:18.861Z,86.24
2018-09-27T22:29:48.183Z,86.57
2018-09-27T22:32:17.412Z,86.30
2018-09-27T22:34:46.290Z,86.64
2018-09-27T22:37:14.961Z,86.87
2018-09-27T22:39:44.082Z,87.06
2018-09-27T22:42:13.390Z,87.04
2018-09-27T22:44:42.670Z,87.15
2018-09-27T22:47:11.497Z,86.89
2018-09-27T22:49:40.143Z,86.80
2018-09-27T22:52:09.121Z,86.69
2018-09-27T22:54:38.403Z,87.13
2018-09-27T22:57:07.652Z,87.49
2018-09-27T22:59:37.200Z,87.93
2018-09-27T23:02:06.222Z,87.94
2018-09-27T23:04:34.971Z,87.84
2018-09-27T23:07:03.625Z,87.63
2018-09-27T23:09:32.147Z,87.78
2018-09-27T23:12:01.115Z,87.78
2018-09-27T23:14:30.995Z,89.44
2018-09-27T23:17:00.388Z,89.57
2018-09-27T23:19:29.292Z,89.25
2018-09-27T23:21:57.985Z,89.02
2018-09-27T23:24:26.786Z,88.65
2018-09-27T23:26:55.493Z,88.32
2018-09-27T23:29:25.450Z,88.30
2018-09-27T23:31:55.002Z,89.28
2018-09-27T23:34:23.982Z,88.87
2018-09-27T23:36:52.911Z,89.14
2018-09-27T23:39:22.500Z,89.24
2018-09-27T23:41:51.820Z,89.29
2018-09-27T23:44:20.609Z,89.70
2018-09-27T23:46:49.173Z,89.82
2018-09-27T23:49:17.840Z,90.52
2018-09-27T23:51:46.620Z,89.92
2018-09-27T23:54:15.470Z,89.49
2018-09-27T23:56:45.025Z,89.64
2018-09-27T23:59:14.491Z,89.62
